Time;durP1;ratioP1;P1;durP2;ratioP2;P2;SDS_P1;SDS_P2;PMS_P1;PMS_P2;Temp;Humidity;BMP_temperature;BMP_pressure;BME280_temperature;BME280_humidity;BME280_pressure;Samples;Min_cycle;Max_cycle;Signal;HPM_P1;HPM_P2
2021/04/19 00:01:04;;;;;;;46.20;19.87;;;;;;;12.69;66.59;100842.84;143754;591;46022;-69
2021/04/19 00:03:31;;;;;;;42.15;19.85;;;;;;;12.76;67.22;100850.56;143753;598;46019;-69
2021/04/19 00:05:59;;;;;;;36.58;18.35;;;;;;;12.80;66.99;100847.75;143754;570;46020;-70
2021/04/19 00:08:26;;;;;;;43.20;18.58;;;;;;;12.87;67.22;100851.03;143755;608;47012;-70
2021/04/19 00:10:54;;;;;;;39.92;19.50;;;;;;;12.90;67.12;100853.56;143752;581;46023;-69
2021/04/19 00:13:21;;;;;;;45.92;20.48;;;;;;;12.89;67.34;100836.06;143755;587;46018;-71
2021/04/19 00:15:48;;;;;;;40.60;19.58;;;;;;;12.96;67.49;100840.19;143753;620;46010;-71
2021/04/19 00:18:16;;;;;;;44.25;20.35;;;;;;;13.00;67.19;100838.31;143757;564;46010;-71
2021/04/19 00:20:43;;;;;;;36.72;19.27;;;;;;;13.04;67.69;100838.13;143753;661;46022;-71
2021/04/19 00:23:10;;;;;;;43.42;20.35;;;;;;;13.08;67.36;100836.25;143755;591;46010;-72
2021/04/19 00:25:37;;;;;;;41.08;19.55;;;;;;;13.13;67.68;100841.34;143755;639;46020;-70
2021/04/19 00:28:05;;;;;;;44.97;19.45;;;;;;;13.15;67.47;100835.09;143754;612;47010;-76
2021/04/19 00:30:32;;;;;;;40.10;19.70;;;;;;;13.21;67.47;100831.38;143754;652;46020;-74
2021/04/19 00:32:59;;;;;;;36.42;19.75;;;;;;;13.26;67.30;100837.34;143756;601;45019;-74
2021/04/19 00:35:27;;;;;;;40.25;18.87;;;;;;;13.32;67.36;100826.53;143757;644;46008;-74
2021/04/19 00:37:54;;;;;;;38.88;19.42;;;;;;;13.39;67.25;100827.22;143757;590;46034;-74
2021/04/19 00:40:22;;;;;;;37.47;18.67;;;;;;;13.43;67.17;100830.59;143750;589;46019;-77
2021/04/19 00:42:52;;;;;;;38.38;18.70;;;;;;;13.47;67.29;100826.94;143754;608;46022;-73
2021/04/19 00:45:20;;;;;;;38.13;18.75;;;;;;;13.49;67.26;100835.62;143754;607;46022;-68
2021/04/19 00:47:47;;;;;;;37.35;17.95;;;;;;;13.52;66.92;100835.53;143755;573;46011;-69
2021/04/19 00:50:25;;;;;;;37.67;18.73;;;;;;;13.49;66.72;100835.62;143750;579;47020;-68
2021/04/19 00:52:53;;;;;;;36.00;19.12;;;;;;;13.49;66.34;100835.62;143754;579;46010;-69
2021/04/19 00:55:21;;;;;;;33.75;17.27;;;;;;;13.46;66.20;100841.03;143755;586;46010;-68
2021/04/19 00:57:48;;;;;;;35.42;16.83;;;;;;;13.44;66.47;100837.59;143752;575;46010;-68
2021/04/19 01:00:38;;;;;;;37.65;17.10;;;;;;;13.45;65.97;100844.56;143752;563;46020;-69
2021/04/19 01:03:05;;;;;;;29.12;16.12;;;;;;;13.45;65.86;100831.38;143748;588;46019;-68
2021/04/19 01:05:41;;;;;;;30.48;16.27;;;;;;;13.44;65.65;100827.06;143749;595;47010;-72
2021/04/19 01:08:09;;;;;;;34.42;16.52;;;;;;;13.42;65.86;100835.00;143757;580;46010;-72
2021/04/19 01:10:37;;;;;;;33.30;16.70;;;;;;;13.38;66.06;100822.84;143752;570;48045;-70
2021/04/19 01:13:06;;;;;;;31.92;16.25;;;;;;;13.33;66.50;100820.37;143753;612;46010;-72
2021/04/19 01:15:35;;;;;;;35.15;16.87;;;;;;;13.30;65.88;100817.84;143754;587;46020;-72
2021/04/19 01:18:03;;;;;;;34.35;17.12;;;;;;;13.31;66.05;100818.69;143755;580;46010;-71
2021/04/19 01:20:46;;;;;;;35.67;17.12;;;;;;;13.29;66.52;100825.81;143750;570;47020;-74
2021/04/19 01:23:15;;;;;;;37.50;17.75;;;;;;;13.30;66.42;100819.59;143754;605;46013;-72
2021/04/19 01:25:43;;;;;;;37.30;18.33;;;;;;;13.30;67.16;100824.88;143753;593;46021;-73
2021/04/19 01:28:11;;;;;;;37.45;17.98;;;;;;;13.29;66.81;100828.47;143758;581;47012;-70
2021/04/19 01:30:49;;;;;;;38.72;17.50;;;;;;;13.29;66.02;100821.41;143749;677;46022;-70
2021/04/19 01:33:17;;;;;;;42.95;20.08;;;;;;;13.27;67.33;100828.53;143754;577;46018;-70
2021/04/19 01:35:46;;;;;;;37.83;18.65;;;;;;;13.24;67.16;100828.62;143754;619;46022;-68
2021/04/19 01:38:16;;;;;;;42.88;17.95;;;;;;;13.22;67.17;100838.38;143756;570;47012;-70
2021/04/19 01:40:43;;;;;;;52.22;19.52;;;;;;;13.23;67.05;100834.81;143753;566;46012;-71
2021/04/19 01:43:10;;;;;;;41.13;19.75;;;;;;;13.26;67.70;100833.81;143751;625;46018;-69
2021/04/19 01:45:37;;;;;;;45.38;20.65;;;;;;;13.29;67.72;100834.59;143754;585;46010;-70
2021/04/19 01:48:06;;;;;;;39.30;19.33;;;;;;;13.33;67.42;100828.28;143754;598;46016;-70
2021/04/19 01:50:33;;;;;;;41.40;20.35;;;;;;;13.39;67.37;100834.28;143749;577;47020;-70
2021/04/19 01:53:01;;;;;;;42.90;20.30;;;;;;;13.43;67.51;100823.53;143751;622;46018;-69
2021/04/19 01:55:32;;;;;;;46.15;20.98;;;;;;;13.49;68.00;100835.62;143749;587;46021;-70
2021/04/19 01:58:13;;;;;;;40.75;20.35;;;;;;;13.53;67.15;100835.47;143754;564;47012;-73
2021/04/19 02:00:44;;;;;;;41.13;21.37;;;;;;;13.59;67.65;100838.81;143752;570;46020;-70
2021/04/19 02:04:04;;;;;;;43.08;21.10;;;;;;;13.61;66.13;100823.75;143755;586;46010;-71
2021/04/19 02:07:04;;;;;;;45.55;21.45;;;;;;;13.65;67.49;100835.91;143750;602;47010;-71
2021/04/19 02:10:21;;;;;;;44.20;19.83;;;;;;;13.67;66.50;100824.38;143756;607;46010;-71
2021/04/19 02:13:00;;;;;;;43.67;19.37;;;;;;;13.70;68.28;100826.87;143754;573;46012;-71
2021/04/19 02:16:13;;;;;;;40.95;19.70;;;;;;;13.72;67.11;100826.81;143752;600;46010;-71
2021/04/19 02:19:05;;;;;;;42.45;20.92;;;;;;;13.76;67.18;100835.50;143753;593;46021;-69
2021/04/19 02:21:56;;;;;;;41.28;19.58;;;;;;;13.78;67.96;100838.91;143756;591;46030;-70
2021/04/19 02:24:26;;;;;;;38.58;19.77;;;;;;;13.76;68.55;100838.97;143749;574;46020;-68
2021/04/19 02:26:58;;;;;;;43.83;19.70;;;;;;;13.75;68.70;100828.50;143753;604;46010;-68
2021/04/19 02:29:47;;;;;;;39.10;19.08;;;;;;;13.78;68.05;100823.09;143754;577;46020;-71
2021/04/19 02:32:36;;;;;;;41.97;19.30;;;;;;;13.78;68.97;100831.00;143754;633;47013;-74
2021/04/19 02:35:13;;;;;;;41.90;19.12;;;;;;;13.78;68.30;100837.16;143752;582;46018;-73
2021/04/19 02:37:42;;;;;;;37.97;18.65;;;;;;;13.81;68.29;100836.19;143753;629;47010;-73
2021/04/19 02:40:11;;;;;;;44.58;18.85;;;;;;;13.84;68.40;100846.59;143753;577;46020;-70
2021/04/19 02:42:46;;;;;;;41.28;19.17;;;;;;;13.88;67.66;100837.66;143756;610;46026;-71
2021/04/19 02:45:15;;;;;;;41.45;20.00;;;;;;;13.91;68.18;100840.16;143753;584;46012;-70
2021/04/19 02:47:48;;;;;;;41.33;19.67;;;;;;;13.95;67.81;100827.72;143753;615;46010;-70
2021/04/19 02:50:18;;;;;;;48.13;19.65;;;;;;;13.97;67.48;100836.41;143746;564;46020;-70
2021/04/19 02:52:47;;;;;;;43.17;20.20;;;;;;;13.99;68.08;100831.94;143755;575;46010;-71
2021/04/19 02:55:17;;;;;;;39.30;20.00;;;;;;;14.01;67.81;100824.81;143752;639;46023;-72
2021/04/19 02:57:51;;;;;;;39.55;17.75;;;;;;;14.00;66.44;100834.50;143754;631;46001;-72
2021/04/19 03:00:21;;;;;;;43.00;18.75;;;;;;;13.98;66.96;100831.09;143755;570;46010;-70
2021/04/19 03:02:50;;;;;;;34.22;17.60;;;;;;;13.99;67.33;100824.03;143757;609;46029;-70
2021/04/19 03:05:18;;;;;;;36.65;18.00;;;;;;;13.94;67.06;100821.56;143751;570;47020;-76
2021/04/19 03:07:58;;;;;;;39.28;18.65;;;;;;;13.91;66.92;100816.41;143753;649;46010;-74
2021/04/19 03:10:30;;;;;;;35.35;18.08;;;;;;;13.93;67.46;100822.50;143754;605;46010;-74
2021/04/19 03:12:59;;;;;;;36.40;18.15;;;;;;;13.96;67.35;100817.06;143754;593;47012;-72
2021/04/19 03:15:35;;;;;;;40.03;18.42;;;;;;;13.98;67.12;100815.25;143750;571;47022;-73
2021/04/19 03:18:04;;;;;;;41.28;18.70;;;;;;;14.00;67.39;100810.75;143753;571;46012;-69
2021/04/19 03:21:04;;;;;;;38.67;19.83;;;;;;;14.03;66.03;100800.06;143754;563;46020;-83
2021/04/19 03:23:41;;;;;;;42.00;19.48;;;;;;;14.05;67.13;100797.34;143755;567;47012;-75
2021/04/19 03:26:10;;;;;;;44.25;19.52;;;;;;;14.08;66.83;100796.37;143752;668;46029;-77
2021/04/19 03:28:39;;;;;;;38.25;18.50;;;;;;;14.07;66.84;100806.09;143753;608;45018;-75
2021/04/19 03:31:11;;;;;;;37.72;17.75;;;;;;;14.07;66.83;100800.81;143753;565;46012;-75
2021/04/19 03:33:43;;;;;;;36.55;17.90;;;;;;;14.07;66.40;100795.53;143753;630;46018;-75
2021/04/19 03:36:12;;;;;;;36.47;17.62;;;;;;;14.05;66.49;100803.50;143749;646;46018;-75
2021/04/19 03:38:41;;;;;;;35.50;17.55;;;;;;;14.04;66.71;100801.78;143751;577;46022;-75
2021/04/19 03:41:10;;;;;;;37.55;17.20;;;;;;;14.02;66.69;100792.22;143748;612;46023;-75
2021/04/19 03:43:39;;;;;;;43.55;20.75;;;;;;;13.95;66.93;100796.87;143750;650;47018;-73
2021/04/19 03:46:09;;;;;;;40.25;18.65;;;;;;;13.90;66.55;100796.22;143751;587;46022;-75
2021/04/19 03:48:42;;;;;;;44.25;18.48;;;;;;;13.89;66.85;100802.41;143752;586;46010;-74
2021/04/19 03:51:12;;;;;;;43.60;19.00;;;;;;;13.88;67.17;100801.53;143749;617;46020;-74
2021/04/19 03:53:42;;;;;;;36.67;18.08;;;;;;;13.88;67.49;100804.19;143752;607;47018;-75
2021/04/19 03:56:12;;;;;;;36.15;18.40;;;;;;;13.88;67.28;100805.97;143749;588;46037;-74
2021/04/19 03:58:42;;;;;;;37.83;19.35;;;;;;;13.88;67.65;100805.97;143752;609;45018;-73
2021/04/19 04:01:12;;;;;;;38.30;18.77;;;;;;;13.92;67.74;100799.66;143753;611;46012;-73
2021/04/19 04:03:39;;;;;;;39.85;19.67;;;;;;;13.94;67.38;100799.59;143754;594;47012;-70
2021/04/19 04:06:09;;;;;;;42.60;19.17;;;;;;;13.92;67.28;100799.66;143744;581;47012;-70
2021/04/19 04:08:36;;;;;;;36.70;18.17;;;;;;;13.92;67.24;100802.28;143751;614;46011;-77
2021/04/19 04:11:04;;;;;;;38.60;18.25;;;;;;;13.94;67.05;100808.38;143753;610;46010;-68
2021/04/19 04:13:33;;;;;;;43.13;22.08;;;;;;;13.96;66.94;100806.53;143751;574;46018;-74
2021/04/19 04:16:00;;;;;;;74.68;31.90;;;;;;;13.99;67.17;100806.37;143749;648;46018;-75
2021/04/19 04:18:28;;;;;;;88.15;37.22;;;;;;;14.03;67.14;100810.63;143751;566;46010;-75
2021/04/19 04:20:56;;;;;;;96.43;43.38;;;;;;;14.05;67.01;100824.63;143752;566;46012;-70
2021/04/19 04:23:24;;;;;;;75.15;31.83;;;;;;;14.06;67.26;100820.19;143755;618;46012;-70
2021/04/19 04:25:51;;;;;;;55.83;23.42;;;;;;;14.07;67.98;100826.34;143748;582;47012;-70
2021/04/19 04:28:18;;;;;;;57.88;26.83;;;;;;;14.06;66.94;100822.84;143750;620;47010;-70
2021/04/19 04:30:45;;;;;;;55.30;26.60;;;;;;;14.10;67.31;100819.16;143743;627;46020;-70
2021/04/19 04:33:13;;;;;;;50.80;23.75;;;;;;;14.13;67.17;100826.94;143751;589;46012;-71
2021/04/19 04:35:40;;;;;;;47.40;23.90;;;;;;;14.14;67.27;100823.37;143749;593;46020;-69
2021/04/19 04:38:07;;;;;;;42.38;21.60;;;;;;;14.15;67.04;100824.25;143750;606;47010;-70
2021/04/19 04:40:35;;;;;;;44.20;22.98;;;;;;;14.16;66.99;100834.75;143753;599;47008;-71
2021/04/19 04:43:11;;;;;;;39.05;20.12;;;;;;;14.20;66.66;100833.72;143755;583;46012;-71
2021/04/19 04:45:39;;;;;;;40.60;18.73;;;;;;;14.19;66.88;100842.53;143749;651;46909;-68
2021/04/19 04:48:34;;;;;;;36.30;17.85;;;;;;;14.16;65.58;100841.81;143751;586;46031;-70
2021/04/19 04:51:14;;;;;;;39.17;17.10;;;;;;;14.14;66.48;100841.03;143750;652;46030;-68
2021/04/19 04:53:51;;;;;;;39.58;17.85;;;;;;;14.15;66.56;100837.47;143752;570;47010;-67
2021/04/19 04:56:23;;;;;;;37.22;18.10;;;;;;;14.14;67.23;100833.94;143749;587;46019;-69
2021/04/19 04:58:55;;;;;;;45.97;19.75;;;;;;;14.14;66.50;100835.75;143751;619;46012;-69
2021/04/19 05:01:26;;;;;;;38.53;18.73;;;;;;;14.17;66.81;100838.25;143752;613;47010;-69
2021/04/19 05:03:54;;;;;;;42.13;18.98;;;;;;;14.21;67.39;100840.72;143753;563;46018;-69
2021/04/19 05:06:21;;;;;;;40.12;18.67;;;;;;;14.25;66.87;100830.88;143751;572;46018;-68
2021/04/19 05:08:49;;;;;;;38.05;18.80;;;;;;;14.26;67.12;100826.47;143750;586;46019;-69
2021/04/19 05:11:17;;;;;;;41.17;19.42;;;;;;;14.28;66.78;100830.72;143751;576;46022;-69
2021/04/19 05:13:44;;;;;;;56.20;20.50;;;;;;;14.25;66.97;100812.38;143753;563;47010;-68
2021/04/19 05:16:11;;;;;;;39.60;19.37;;;;;;;14.30;67.22;100818.34;143749;564;47020;-70
2021/04/19 05:18:38;;;;;;;41.08;20.17;;;;;;;14.33;67.56;100812.06;143752;573;46010;-68
2021/04/19 05:21:06;;;;;;;38.15;19.98;;;;;;;14.36;67.01;100802.22;143744;587;46020;-67
2021/04/19 05:23:33;;;;;;;42.70;20.50;;;;;;;14.49;66.82;100804.34;143751;581;46018;-69
2021/04/19 05:26:02;;;;;;;45.95;19.40;;;;;;;14.62;66.70;100796.75;143745;617;46012;-69
2021/04/19 05:28:30;;;;;;;38.78;18.73;;;;;;;14.71;66.40;100797.25;143750;586;47010;-71
2021/04/19 05:30:57;;;;;;;42.67;19.08;;;;;;;14.79;66.37;100798.69;143751;573;47008;-75
2021/04/19 05:33:24;;;;;;;36.75;18.98;;;;;;;14.79;66.36;100793.37;143752;662;47010;-74
2021/04/19 05:35:51;;;;;;;38.80;17.55;;;;;;;14.80;66.40;100795.12;143750;601;46018;-74
2021/04/19 05:38:19;;;;;;;41.28;17.70;;;;;;;14.85;66.62;100803.69;143751;573;45047;-70
2021/04/19 05:40:46;;;;;;;43.38;18.10;;;;;;;14.86;66.36;100803.63;143752;594;46010;-71
2021/04/19 05:43:14;;;;;;;40.15;17.70;;;;;;;14.92;66.31;100785.78;143753;605;47012;-72
2021/04/19 05:45:43;;;;;;;38.97;19.35;;;;;;;14.95;65.84;100798.84;143741;607;46909;-72
2021/04/19 05:48:10;;;;;;;38.25;18.77;;;;;;;14.98;66.47;100804.88;143750;586;45018;-72
2021/04/19 05:50:37;;;;;;;38.15;18.33;;;;;;;14.94;66.51;100797.13;143752;584;46020;-72
2021/04/19 05:53:05;;;;;;;33.92;17.27;;;;;;;14.93;67.08;100791.00;143752;569;46011;-72
2021/04/19 05:55:34;;;;;;;35.20;17.67;;;;;;;14.89;67.26;100789.41;143751;581;46909;-72
2021/04/19 05:58:56;;;;;;;41.30;18.92;;;;;;;14.89;65.77;100782.34;143752;589;47010;-70
2021/04/19 06:01:25;;;;;;;44.33;18.08;;;;;;;14.90;67.47;100785.84;143749;583;46021;-68
2021/04/19 06:04:05;;;;;;;39.22;18.08;;;;;;;14.95;66.32;100783.00;143752;618;47012;-68
2021/04/19 06:07:03;;;;;;;45.20;17.80;;;;;;;15.11;65.68;100777.88;143749;565;46012;-69
2021/04/19 06:09:49;;;;;;;41.28;18.17;;;;;;;15.25;66.00;100778.09;143750;654;46012;-67
2021/04/19 06:12:21;;;;;;;37.33;17.98;;;;;;;15.36;66.37;100778.47;143744;563;46022;-67
2021/04/19 06:14:51;;;;;;;38.35;18.80;;;;;;;15.35;65.92;100783.78;143753;580;46019;-69
2021/04/19 06:17:22;;;;;;;31.40;16.42;;;;;;;15.32;67.31;100779.53;143749;625;47021;-69
2021/04/19 06:19:49;;;;;;;40.30;17.60;;;;;;;15.29;68.62;100784.09;143753;563;46010;-71
2021/04/19 06:22:19;;;;;;;39.45;20.05;;;;;;;15.38;67.84;100768.66;143753;625;47011;-71
2021/04/19 06:24:53;;;;;;;39.58;16.73;;;;;;;15.52;67.25;100773.28;143753;643;46019;-71
2021/04/19 06:27:26;;;;;;;35.47;17.45;;;;;;;15.65;66.41;100776.22;143751;604;46012;-70
2021/04/19 06:29:54;;;;;;;35.53;17.12;;;;;;;15.90;66.09;100778.53;143751;691;46010;-72
2021/04/19 06:32:22;;;;;;;33.45;15.95;;;;;;;16.10;66.31;100786.44;143752;634;46020;-70
2021/04/19 06:34:50;;;;;;;37.60;17.00;;;;;;;15.99;65.91;100790.50;143753;593;47010;-69
2021/04/19 06:37:20;;;;;;;36.15;16.15;;;;;;;15.83;66.79;100790.38;143751;677;46012;-68
2021/04/19 06:39:47;;;;;;;38.13;17.20;;;;;;;15.67;67.52;100794.66;143751;614;46012;-69
2021/04/19 06:42:15;;;;;;;43.50;18.10;;;;;;;15.48;67.77;100786.75;143752;569;47008;-66
2021/04/19 06:44:43;;;;;;;41.03;18.37;;;;;;;15.48;68.41;100789.37;143755;604;46010;-68
2021/04/19 06:47:11;;;;;;;38.25;16.40;;;;;;;15.45;68.46;100792.19;143751;566;46012;-70
2021/04/19 06:49:40;;;;;;;41.92;16.37;;;;;;;15.34;69.03;100793.53;143751;635;46010;-71
2021/04/19 06:52:07;;;;;;;41.65;18.50;;;;;;;15.32;68.71;100787.47;143752;579;46020;-68
2021/04/19 06:54:34;;;;;;;40.55;17.33;;;;;;;15.51;68.64;100790.13;143753;629;47012;-67
2021/04/19 06:57:02;;;;;;;44.05;17.73;;;;;;;15.73;68.49;100789.06;143751;719;45905;-71
2021/04/19 06:59:30;;;;;;;38.92;17.27;;;;;;;15.89;67.37;100784.75;143752;731;46010;-68
2021/04/19 07:01:58;;;;;;;35.65;16.48;;;;;;;16.00;66.44;100792.19;143747;728;46020;-68
2021/04/19 07:04:27;;;;;;;35.53;16.58;;;;;;;15.99;66.51;100792.25;143752;634;46018;-68
2021/04/19 07:06:55;;;;;;;33.75;14.75;;;;;;;16.03;64.99;100792.06;143681;580;61257;-67
2021/04/19 07:09:27;;;;;;;35.88;16.20;;;;;;;16.09;65.24;100793.53;143750;598;46010;-66
2021/04/19 07:12:09;;;;;;;39.53;15.35;;;;;;;16.13;65.22;100786.28;143751;652;46010;-68
2021/04/19 07:14:38;;;;;;;36.05;14.73;;;;;;;16.21;65.26;100774.38;143753;569;46016;-69
2021/04/19 07:17:09;;;;;;;28.10;14.63;;;;;;;16.19;64.78;100767.44;143751;593;46010;-69
2021/04/19 07:19:38;;;;;;;26.73;14.85;;;;;;;16.24;65.00;100768.91;143750;634;46008;-69
2021/04/19 07:22:06;;;;;;;32.67;16.80;;;;;;;16.54;63.89;100768.28;143749;581;46020;-69
2021/04/19 07:24:35;;;;;;;37.05;18.23;;;;;;;16.89;63.65;100762.94;143753;581;47010;-70
2021/04/19 07:27:03;;;;;;;29.45;13.90;;;;;;;17.12;62.18;100759.97;143749;663;46010;-68
2021/04/19 07:29:31;;;;;;;27.95;13.30;;;;;;;17.19;61.42;100756.88;143752;673;46008;-68
2021/04/19 07:31:59;;;;;;;23.83;12.93;;;;;;;17.10;61.23;100749.47;143751;602;46025;-69
2021/04/19 07:34:31;;;;;;;25.80;13.05;;;;;;;17.07;61.53;100754.91;143752;609;47010;-70
2021/04/19 07:37:08;;;;;;;26.00;13.00;;;;;;;17.11;61.33;100745.00;143750;575;46010;-67
2021/04/19 07:39:39;;;;;;;27.42;14.70;;;;;;;17.17;61.78;100734.06;143751;608;46010;-70
2021/04/19 07:42:11;;;;;;;28.23;13.88;;;;;;;17.39;61.79;100739.88;143753;626;46020;-73
2021/04/19 07:45:05;;;;;;;33.53;15.80;;;;;;;17.65;61.42;100734.88;143753;578;46008;-69
2021/04/19 07:47:43;;;;;;;31.80;15.18;;;;;;;17.89;60.23;100737.94;143751;588;46020;-71
2021/04/19 07:50:19;;;;;;;26.33;15.18;;;;;;;18.03;60.02;100723.88;143751;650;46018;-69
2021/04/19 07:53:18;;;;;;;35.88;16.77;;;;;;;18.02;59.38;100722.16;143745;569;46021;-69
2021/04/19 07:55:47;;;;;;;30.65;15.65;;;;;;;18.05;59.29;100726.44;143752;608;49010;-69
2021/04/19 07:58:22;;;;;;;35.45;16.58;;;;;;;18.19;59.79;100717.63;143750;592;46018;-71
2021/04/19 08:00:52;;;;;;;29.52;16.20;;;;;;;18.37;59.37;100720.97;143750;610;46018;-69
2021/04/19 08:03:20;;;;;;;28.25;15.57;;;;;;;18.60;58.91;100724.87;143748;604;46020;-69
2021/04/19 08:05:52;;;;;;;25.35;13.60;;;;;;;18.80;58.63;100718.34;143750;587;46018;-69
2021/04/19 08:08:36;;;;;;;24.75;12.85;;;;;;;18.81;57.16;100706.75;143751;638;46023;-72
2021/04/19 08:11:10;;;;;;;;;;;;;;;18.81;59.72;100704.09;143757;973;46025;-70
2021/04/19 08:13:38;;;;;;;28.20;12.63;;;;;;;18.95;58.37;100689.94;143760;576;46021;-70
2021/04/19 08:16:26;;;;;;;32.42;12.75;;;;;;;19.03;57.61;100686.81;143756;623;46010;-70
2021/04/19 08:19:06;;;;;;;25.15;11.68;;;;;;;19.17;56.89;100677.94;143744;563;46018;-70
2021/04/19 08:21:35;;;;;;;25.67;12.13;;;;;;;19.26;55.96;100674.69;143748;583;46011;-70
2021/04/19 08:24:16;;;;;;;28.30;11.00;;;;;;;19.34;55.85;100669.72;143753;597;46021;-69
2021/04/19 08:26:55;;;;;;;20.90;10.70;;;;;;;19.36;56.47;100677.59;143753;762;47012;-69
2021/04/19 08:29:46;;;;;;;25.48;12.27;;;;;;;19.52;56.61;100677.41;143749;572;46021;-71
2021/04/19 08:32:16;;;;;;;25.73;13.30;;;;;;;19.42;55.37;100667.41;143751;584;47010;-71
2021/04/19 08:34:44;;;;;;;26.70;13.15;;;;;;;19.31;55.36;100664.56;143752;577;46012;-71
2021/04/19 08:37:11;;;;;;;24.95;12.80;;;;;;;19.17;55.83;100667.28;143752;590;46019;-70
2021/04/19 08:39:40;;;;;;;24.52;13.07;;;;;;;19.00;56.84;100661.25;143753;575;46012;-70
2021/04/19 08:42:07;;;;;;;28.50;12.93;;;;;;;18.88;57.09;100654.91;143748;591;46010;-70
2021/04/19 08:44:36;;;;;;;24.50;12.50;;;;;;;18.76;56.72;100659.16;143747;574;46013;-71
2021/04/19 08:47:05;;;;;;;26.73;12.70;;;;;;;18.71;58.05;100655.09;143752;569;47012;-70
2021/04/19 08:49:32;;;;;;;31.35;13.18;;;;;;;18.83;56.88;100648.13;143748;616;47020;-71
2021/04/19 08:52:00;;;;;;;22.92;13.20;;;;;;;18.90;58.08;100638.84;143750;614;46019;-70
2021/04/19 08:54:28;;;;;;;23.40;12.10;;;;;;;19.08;57.17;100640.31;143751;622;46020;-70
2021/04/19 08:56:56;;;;;;;32.67;11.98;;;;;;;19.29;56.34;100639.88;143753;612;46010;-70
2021/04/19 08:59:24;;;;;;;27.80;13.18;;;;;;;19.43;56.42;100626.50;143749;591;46019;-77
2021/04/19 09:01:53;;;;;;;33.72;15.20;;;;;;;19.59;55.36;100622.81;143750;573;47010;-75
2021/04/19 09:04:24;;;;;;;32.20;13.30;;;;;;;19.68;55.57;100624.00;143752;572;46012;-74
2021/04/19 09:06:53;;;;;;;23.65;12.15;;;;;;;19.70;54.31;100622.94;143755;732;46019;-75
2021/04/19 09:09:39;;;;;;;29.98;13.75;;;;;;;19.64;56.54;100612.69;143751;570;46012;-79
2021/04/19 09:12:23;;;;;;;30.02;13.68;;;;;;;19.62;56.41;100609.28;143750;599;46010;-77
2021/04/19 09:14:51;;;;;;;30.17;12.77;;;;;;;19.71;55.46;100607.81;143751;598;46021;-77
2021/04/19 09:17:27;;;;;;;25.25;11.50;;;;;;;19.91;55.75;100601.16;143752;572;47010;-76
2021/04/19 09:19:59;;;;;;;22.62;11.38;;;;;;;20.03;54.22;100596.78;143749;569;46020;-77
2021/04/19 09:22:27;;;;;;;21.17;11.40;;;;;;;20.01;52.52;100599.56;143751;574;46010;-76
2021/04/19 09:25:14;;;;;;;25.33;11.55;;;;;;;19.96;54.69;100607.00;143753;577;46010;-74
2021/04/19 09:27:56;;;;;;;27.15;11.95;;;;;;;19.87;53.93;100597.81;143753;585;46018;-75
2021/04/19 09:30:32;;;;;;;25.10;12.60;;;;;;;19.73;54.69;100584.59;143748;619;46018;-74
2021/04/19 09:33:25;;;;;;;20.50;12.13;;;;;;;19.72;55.25;100573.06;143751;575;46010;-76
2021/04/19 09:35:53;;;;;;;24.70;11.85;;;;;;;19.82;54.05;100575.13;143745;696;45021;-76
2021/04/19 09:38:53;;;;;;;22.90;11.20;;;;;;;20.07;55.92;100572.47;143753;616;46010;-75
2021/04/19 09:41:21;;;;;;;22.70;10.82;;;;;;;20.21;52.96;100560.00;143751;638;46012;-76
2021/04/19 09:43:59;;;;;;;23.05;11.05;;;;;;;20.00;53.12;100559.69;143752;569;45046;-76
2021/04/19 09:46:33;;;;;;;21.35;10.90;;;;;;;19.77;55.10;100570.94;143752;591;46010;-75
2021/04/19 09:49:06;;;;;;;23.92;10.90;;;;;;;19.47;53.28;100568.56;143754;630;47008;-77
2021/04/19 09:51:44;;;;;;;21.20;12.20;;;;;;;19.21;55.91;100567.66;143752;577;46907;-75
2021/04/19 09:54:22;;;;;;;21.05;11.43;;;;;;;19.00;55.00;100570.78;143753;569;46012;-76
2021/04/19 09:56:57;;;;;;;19.83;10.27;;;;;;;18.74;54.49;100575.97;143754;650;45020;-76
2021/04/19 09:59:29;;;;;;;19.20;11.10;;;;;;;18.53;54.55;100572.03;143756;630;46010;-76
2021/04/19 10:02:00;;;;;;;20.73;10.55;;;;;;;18.27;54.73;100583.34;143747;658;46012;-77
2021/04/19 10:04:30;;;;;;;21.00;11.75;;;;;;;18.07;56.47;100575.75;143750;585;46018;-74
2021/04/19 10:07:01;;;;;;;22.02;11.55;;;;;;;18.00;56.33;100564.66;143753;606;47013;-76
2021/04/19 10:09:30;;;;;;;16.65;10.10;;;;;;;17.97;55.25;100559.50;143755;566;46010;-76
2021/04/19 10:12:06;;;;;;;17.87;10.40;;;;;;;17.93;56.68;100552.69;143753;589;46012;-76
2021/04/19 10:14:38;;;;;;;24.95;10.10;;;;;;;17.91;55.65;100552.78;143750;617;46018;-70
2021/04/19 10:17:22;;;;;;;19.87;10.17;;;;;;;17.95;56.69;100545.50;143753;570;46010;-70
2021/04/19 10:19:49;;;;;;;19.95;9.52;;;;;;;18.08;54.71;100537.59;143755;606;47008;-70
2021/04/19 10:22:18;;;;;;;15.27;9.20;;;;;;;18.22;54.60;100528.75;143752;600;46012;-71
2021/04/19 10:24:56;;;;;;;15.85;8.73;;;;;;;18.30;55.12;100529.13;143754;581;46010;-70
2021/04/19 10:27:33;;;;;;;16.52;8.90;;;;;;;18.36;54.22;100539.38;143745;566;47010;-70
2021/04/19 10:30:16;;;;;;;17.58;9.32;;;;;;;18.52;54.66;100533.09;143755;601;46010;-70
2021/04/19 10:32:45;;;;;;;15.98;8.90;;;;;;;18.63;52.45;100543.03;143749;611;46022;-70
2021/04/19 10:35:39;;;;;;;18.33;8.52;;;;;;;18.83;54.22;100531.94;143754;569;46011;-70
2021/04/19 10:38:09;;;;;;;15.35;8.43;;;;;;;18.99;51.64;100536.31;143752;571;46029;-72
2021/04/19 10:40:36;;;;;;;23.08;8.40;;;;;;;18.92;51.18;100576.59;143755;680;47008;-75
2021/04/19 10:43:11;;;;;;;19.00;9.65;;;;;;;18.66;53.70;100617.28;143752;572;46013;-73
2021/04/19 10:45:43;;;;;;;27.25;12.70;;;;;;;18.48;57.21;100632.59;143750;589;46018;-73
2021/04/19 10:48:27;;;;;;;9.77;4.20;;;;;;;18.38;54.60;100629.66;143754;571;46026;-73
2021/04/19 10:51:18;;;;;;;10.88;2.90;;;;;;;18.29;51.55;100620.47;143753;618;47010;-73
2021/04/19 10:53:46;;;;;;;11.60;3.00;;;;;;;18.28;50.80;100626.72;143744;569;46022;-73
2021/04/19 10:56:24;;;;;;;11.60;3.28;;;;;;;18.29;52.23;100628.44;143752;589;46018;-73
2021/04/19 10:59:06;;;;;;;7.93;3.25;;;;;;;18.35;54.03;100622.72;143753;583;46026;-73
2021/04/19 11:01:36;;;;;;;13.50;4.05;;;;;;;18.49;52.73;100629.84;143754;586;46018;-73
2021/04/19 11:04:09;;;;;;;10.02;3.00;;;;;;;18.53;51.28;100627.84;143755;600;45907;-74
2021/04/19 11:06:39;;;;;;;11.85;4.20;;;;;;;18.50;51.15;100626.22;143751;690;46019;-74
2021/04/19 11:09:21;;;;;;;8.70;3.80;;;;;;;18.48;51.52;100632.59;143751;646;46010;-73
2021/04/19 11:11:51;;;;;;;9.68;3.45;;;;;;;18.50;50.84;100625.41;143756;706;46030;-73
2021/04/19 11:14:26;;;;;;;7.20;3.12;;;;;;;18.55;51.87;100623.31;143750;579;46012;-73
2021/04/19 11:17:05;;;;;;;5.70;2.22;;;;;;;18.60;49.15;100621.19;143753;703;46010;-73
2021/04/19 11:19:46;;;;;;;4.97;2.40;;;;;;;18.67;51.58;100619.00;143751;586;46012;-72
2021/04/19 11:22:33;;;;;;;4.00;2.50;;;;;;;18.75;50.43;100608.72;143756;579;46012;-73
2021/04/19 11:25:22;;;;;;;3.75;1.60;;;;;;;18.81;52.37;100608.34;143753;575;46014;-73
2021/04/19 11:28:12;;;;;;;6.25;1.52;;;;;;;18.84;47.89;100596.66;143753;601;46028;-72
2021/04/19 11:30:40;;;;;;;3.28;1.80;;;;;;;18.86;48.13;100605.38;143756;572;46010;-74
2021/04/19 11:33:12;;;;;;;7.62;1.40;;;;;;;18.82;48.89;100595.88;143754;617;47018;-78
2021/04/19 11:35:45;;;;;;;9.48;1.90;;;;;;;18.74;47.73;100597.25;143753;668;46907;-76
2021/04/19 11:38:22;;;;;;;;;;;;;;;18.57;43.00;100621.38;143760;956;46010;-78